This is the latest recevied weather packets stored in our database for station/object KC8P. If no packets are shown the sender has not sent any weather packets the latest 1 day(s).
| Time | Temp. | Humidity | Pressure | Rain* | Wind** | Luminosity | Snow |
|---|---|---|---|---|---|---|---|
| 1778074833 | 7.78° C | 62% | 1011.8 hPa | 0 mm | - | 486 W/m² | - |
| 1778074818 | 7.78° C | 62% | 1011.8 hPa | 0 mm | - | 482 W/m² | - |
| 1778074655 | 6.67° C | 64% | 1011.8 hPa | 0 mm | - | 489 W/m² | - |
| 1778074500 | 6.67° C | 64% | 1011.8 hPa | 0 mm | - | 464 W/m² | - |
| 1778074343 | 7.78° C | 63% | 1011.8 hPa | 0 mm | - | 406 W/m² | - |
| 1778074043 | 7.78° C | 65% | 1011.8 hPa | 0 mm | - | 371 W/m² | - |
| 1778073867 | 7.78° C | 64% | 1011.4 hPa | 0 mm | - | 409 W/m² | - |
| 1778073708 | 7.78° C | 64% | 1011.8 hPa | 0 mm | - | 415 W/m² | - |
| 1778073118 | 6.67° C | 68% | 1011.4 hPa | 0 mm | - | 370 W/m² | - |
| 1778073051 | 6.67° C | 68% | 1011.4 hPa | 0 mm | - | 365 W/m² | - |
| 1778072866 | 6.11° C | 69% | 1011.4 hPa | 0 mm | - | 350 W/m² | - |
| 1778072525 | 6.67° C | 69% | 1011.1 hPa | 0 mm | - | 334 W/m² | - |
| 1778072328 | 6.67° C | 69% | 1011.1 hPa | 0 mm | - | 318 W/m² | - |
| 1778072263 | 7.22° C | 68% | 1011.1 hPa | 0 mm | - | 314 W/m² | - |
| 1778072197 | 7.22° C | 68% | 1010.8 hPa | 0 mm | - | 316 W/m² | - |
| 1778072131 | 7.22° C | 68% | 1010.8 hPa | 0 mm | - | 313 W/m² | - |
| 1778072066 | 6.67° C | 69% | 1011.1 hPa | 0 mm | - | 309 W/m² | - |
| 1778072000 | 6.67° C | 69% | 1011.1 hPa | 0 mm | - | 307 W/m² | - |
| 1778071934 | 6.67° C | 67% | 1011.1 hPa | 0 mm | - | 304 W/m² | - |
| 1778071869 | 6.67° C | 68% | 1011.1 hPa | 0 mm | - | 299 W/m² | - |
| 1778071803 | 6.11° C | 69% | 1011.1 hPa | 0 mm | - | 296 W/m² | - |
| 1778071738 | 6.11° C | 69% | 1011.1 hPa | 0 mm | - | 295 W/m² | - |
| 1778071672 | 6.67° C | 68% | 1010.8 hPa | 0 mm | - | 291 W/m² | - |
| 1778071607 | 6.67° C | 68% | 1010.8 hPa | 0 mm | - | 286 W/m² | - |
| 1778071475 | 6.11° C | 70% | 1011.1 hPa | 0 mm | - | 274 W/m² | - |
* Rain latest hour (hover to see other rain measurements)
** Current wind speed in m/s (hover to see current wind gust speed)